Terminal Aerodrome Forecast
Issued by NWS

Home | Current Version | Previous Version | Text Only | Print | Product List | Glossary Off
Versions: 1 2 3 4 5 6 7 8 9 10 11 12 13 14 15 16 17 18 19 20

000
FTUS43 KGRB 181700
TAFATW
TAF
KATW 181729Z 1818/1918 36010G17KT P6SM SCT030
     FM182200 36005KT P6SM SKC
     FM191300 19003KT P6SM SCT030 BKN200
     FM191600 21009KT P6SM BKN035 OVC070=

USA.gov is the U.S. government's official web portal to all federal, state and local government web resources and services.